createdAt,value
2023-03-06T06:30:45.935Z,79.48
2023-03-06T06:33:58.605Z,78.98
2023-03-06T06:37:10.956Z,78.99
2023-03-06T06:40:24.447Z,78.99
2023-03-06T06:43:37.307Z,78.15
2023-03-06T06:47:21.148Z,78.07
2023-03-06T06:50:22.714Z,78.08
2023-03-06T06:53:35.443Z,77.33
2023-03-06T06:56:48.577Z,77.52
2023-03-06T07:00:01.206Z,77.06
2023-03-06T07:03:14.162Z,77.42
2023-03-06T07:06:26.926Z,76.63
2023-03-06T07:09:40.224Z,76.91
2023-03-06T07:12:52.819Z,75.48
2023-03-06T07:16:05.682Z,76.15
2023-03-06T07:19:18.321Z,75.59
2023-03-06T07:22:41.425Z,76.88
2023-03-06T07:26:01.468Z,75.21
2023-03-06T07:32:26.847Z,73.92
2023-03-06T07:35:39.327Z,74.83
2023-03-06T07:38:52.053Z,73.62
2023-03-06T07:42:05.165Z,74.08
2023-03-06T07:45:17.938Z,72.19
2023-03-06T07:48:30.466Z,72.55
2023-03-06T07:51:43.174Z,71.97
2023-03-06T07:54:55.923Z,72.53
2023-03-06T07:58:08.570Z,72.75
2023-03-06T08:01:23.556Z,69.19
2023-03-06T08:04:36.184Z,69.83
2023-03-06T08:07:48.567Z,69.70
2023-03-06T08:11:01.204Z,70.91
2023-03-06T08:14:13.539Z,69.42
2023-03-06T08:17:26.633Z,69.31
2023-03-06T08:20:39.002Z,67.35
2023-03-06T08:23:51.744Z,67.47
2023-03-06T08:27:04.073Z,67.57
2023-03-06T08:30:17.039Z,65.76
2023-03-06T08:33:29.436Z,66.64
2023-03-06T08:36:42.618Z,66.25
2023-03-06T08:39:55.001Z,69.40
2023-03-06T08:43:12.979Z,69.03
2023-03-06T08:46:27.651Z,67.54
2023-03-06T08:49:40.313Z,67.59
2023-03-06T08:52:52.630Z,65.09
2023-03-06T08:56:05.672Z,66.09
2023-03-06T08:59:19.443Z,65.96
2023-03-06T09:02:32.604Z,63.35
2023-03-06T09:05:45.031Z,60.16
2023-03-06T09:08:57.668Z,60.18
2023-03-06T09:12:10.070Z,61.84
2023-03-06T09:15:23.091Z,60.62
2023-03-06T09:18:35.606Z,60.84
2023-03-06T09:21:49.239Z,58.35
2023-03-06T09:25:01.640Z,59.11
2023-03-06T09:28:14.482Z,60.47
2023-03-06T09:31:26.872Z,58.05
2023-03-06T09:34:39.563Z,57.41
2023-03-06T09:37:51.933Z,57.43
2023-03-06T09:41:16.795Z,57.24
2023-03-06T09:44:32.504Z,56.51
2023-03-06T09:48:11.155Z,55.76
2023-03-06T09:51:27.836Z,55.18
2023-03-06T09:54:40.325Z,54.76
2023-03-06T09:58:10.830Z,54.96
2023-03-06T10:01:28.129Z,53.51
2023-03-06T10:04:41.397Z,55.17
2023-03-06T10:08:00.834Z,53.79
2023-03-06T10:11:13.564Z,53.07
2023-03-06T10:14:28.857Z,54.67
2023-03-06T10:17:42.015Z,53.58
2023-03-06T10:21:17.006Z,53.48
2023-03-06T10:24:45.807Z,52.30
2023-03-06T10:28:18.742Z,51.61
2023-03-06T10:31:31.376Z,52.20
2023-03-06T10:34:43.757Z,52.04
2023-03-06T10:38:17.300Z,52.07
2023-03-06T10:41:35.295Z,52.22
2023-03-06T10:44:47.940Z,51.59
2023-03-06T10:48:11.940Z,51.81
2023-03-06T10:51:24.974Z,51.67
2023-03-06T10:54:38.988Z,51.36
2023-03-06T10:57:51.736Z,51.51
2023-03-06T11:01:06.952Z,51.26
2023-03-06T11:04:24.244Z,52.90
2023-03-06T11:07:36.743Z,52.20
2023-03-06T11:11:00.854Z,51.31
2023-03-06T11:14:23.096Z,51.68
2023-03-06T11:17:37.752Z,51.27
2023-03-06T11:20:53.016Z,51.28
2023-03-06T11:24:15.434Z,52.42
2023-03-06T11:27:34.720Z,51.66
2023-03-06T11:30:49.668Z,51.04
2023-03-06T11:34:16.171Z,51.21
2023-03-06T11:37:31.851Z,50.16
2023-03-06T11:40:55.438Z,50.20
2023-03-06T11:44:34.705Z,50.93
2023-03-06T11:47:54.664Z,49.50
2023-03-06T11:51:13.754Z,51.43
2023-03-06T11:54:26.172Z,50.36
2023-03-06T11:58:18.939Z,49.01
2023-03-06T12:01:41.974Z,48.71
2023-03-06T12:05:22.914Z,48.25
2023-03-06T12:08:58.625Z,48.20
2023-03-06T12:12:11.205Z,47.93
2023-03-06T12:15:49.866Z,47.76
2023-03-06T12:19:24.934Z,48.93
2023-03-06T12:23:02.499Z,49.36
2023-03-06T12:26:36.817Z,47.18
2023-03-06T12:30:19.376Z,48.79
2023-03-06T12:33:34.924Z,48.46
2023-03-06T12:37:09.587Z,47.25
2023-03-06T12:40:56.194Z,47.72
2023-03-06T12:44:30.051Z,46.99
2023-03-06T12:47:44.595Z,46.42
2023-03-06T12:50:56.946Z,47.56
2023-03-06T12:54:09.787Z,47.79
2023-03-06T12:57:24.435Z,48.11
2023-03-06T13:00:39.977Z,48.56
2023-03-06T13:04:26.951Z,48.77
2023-03-06T13:07:52.961Z,48.90
2023-03-06T13:11:20.168Z,48.87
2023-03-06T13:14:42.386Z,48.67
2023-03-06T13:17:58.340Z,48.66
2023-03-06T13:21:42.076Z,48.56
2023-03-06T13:25:20.478Z,48.58
2023-03-06T13:28:44.938Z,49.52
2023-03-06T13:32:03.564Z,49.85
2023-03-06T13:35:34.717Z,50.22
2023-03-06T13:38:52.988Z,49.07
2023-03-06T13:42:07.255Z,48.88
2023-03-06T13:45:23.084Z,48.95
2023-03-06T13:48:45.071Z,48.48
2023-03-06T13:52:30.361Z,48.59
2023-03-06T13:56:04.247Z,49.28
2023-03-06T14:00:03.163Z,50.37
2023-03-06T14:03:21.116Z,52.82
2023-03-06T14:06:36.110Z,53.65
2023-03-06T14:10:12.046Z,54.18
2023-03-06T14:13:30.020Z,54.89
2023-03-06T14:16:50.131Z,54.88
2023-03-06T14:20:12.625Z,55.38
2023-03-06T14:23:26.551Z,55.86
2023-03-06T14:26:43.959Z,56.28
2023-03-06T14:30:06.400Z,56.12
2023-03-06T14:33:31.216Z,55.08
2023-03-06T14:36:48.635Z,55.23
2023-03-06T14:40:01.067Z,55.85
2023-03-06T14:43:26.824Z,55.67
2023-03-06T14:46:39.291Z,55.80
2023-03-06T14:50:37.055Z,55.93
2023-03-06T14:53:50.298Z,57.13
2023-03-06T14:57:05.979Z,56.21
2023-03-06T15:00:20.734Z,55.84
2023-03-06T15:03:43.365Z,55.98
2023-03-06T15:06:55.803Z,56.11
2023-03-06T15:10:29.869Z,56.97
2023-03-06T15:13:42.233Z,58.37
2023-03-06T15:16:54.870Z,58.94
2023-03-06T15:20:10.536Z,58.91
2023-03-06T15:23:33.866Z,60.54
2023-03-06T15:26:46.160Z,60.18
2023-03-06T15:30:37.110Z,61.08
2023-03-06T15:34:01.453Z,62.98
2023-03-06T15:37:34.247Z,63.64
2023-03-06T15:40:54.949Z,65.25
2023-03-06T15:44:13.484Z,65.71
2023-03-06T15:47:25.866Z,65.31
2023-03-06T15:50:38.546Z,65.52
2023-03-06T15:53:53.030Z,67.46
2023-03-06T15:57:06.390Z,69.42
2023-03-06T16:00:28.989Z,70.17
2023-03-06T16:03:41.616Z,70.47
2023-03-06T16:06:53.948Z,69.30
2023-03-06T16:10:06.767Z,71.16
2023-03-06T16:13:27.204Z,72.13
2023-03-06T16:16:39.920Z,72.25
2023-03-06T16:19:52.253Z,73.53
2023-03-06T16:23:08.028Z,73.73
2023-03-06T16:26:27.042Z,73.56
2023-03-06T16:29:40.025Z,75.83
2023-03-06T16:32:52.346Z,75.93
2023-03-06T16:36:14.434Z,77.53
2023-03-06T16:39:26.748Z,79.44
2023-03-06T16:42:39.344Z,78.96
2023-03-06T16:45:51.922Z,80.74
2023-03-06T16:49:04.542Z,80.82
2023-03-06T16:52:17.838Z,81.93
2023-03-06T16:55:30.478Z,81.57
2023-03-06T16:58:43.116Z,82.86
2023-03-06T17:01:55.730Z,83.10
2023-03-06T17:05:08.628Z,83.47
2023-03-06T17:08:21.297Z,83.35
2023-03-06T17:11:35.324Z,83.30
2023-03-06T17:14:47.929Z,83.52
2023-03-06T17:18:00.264Z,83.39
2023-03-06T17:21:15.545Z,83.90
2023-03-06T17:24:28.078Z,84.90
2023-03-06T17:27:40.726Z,84.66
2023-03-06T17:30:53.100Z,86.52
2023-03-06T17:34:05.693Z,85.21
2023-03-06T17:37:18.098Z,84.13
2023-03-06T17:40:30.712Z,85.33
2023-03-06T17:43:43.034Z,84.20
2023-03-06T17:46:55.648Z,84.66
2023-03-06T17:50:08.920Z,82.28
2023-03-06T17:53:21.696Z,82.21
2023-03-06T17:56:34.051Z,81.88
2023-03-06T17:59:47.765Z,83.58
2023-03-06T18:03:00.118Z,82.29
2023-03-06T18:06:12.886Z,81.72
2023-03-06T18:09:25.274Z,81.91
2023-03-06T18:12:37.903Z,82.27
2023-03-06T18:15:50.261Z,82.75
2023-03-06T18:19:02.900Z,83.14
2023-03-06T18:22:15.339Z,82.29
2023-03-06T18:25:27.962Z,83.00
2023-03-06T18:28:42.570Z,82.51
2023-03-06T18:31:56.853Z,83.50
2023-03-06T18:35:09.577Z,83.03
2023-03-06T18:38:22.216Z,82.22
2023-03-06T18:41:34.659Z,81.64
2023-03-06T18:44:49.856Z,81.76
2023-03-06T18:48:04.976Z,82.45
2023-03-06T18:51:19.351Z,81.72
2023-03-06T18:54:31.686Z,82.83
2023-03-06T18:57:44.339Z,82.56
2023-03-06T19:00:58.975Z,83.31
2023-03-06T19:04:12.168Z,84.15
2023-03-06T19:07:24.957Z,84.44
2023-03-06T19:10:38.281Z,86.63
2023-03-06T19:13:50.635Z,88.11
2023-03-06T19:17:03.329Z,88.56
2023-03-06T19:20:15.676Z,88.37
2023-03-06T19:23:28.257Z,88.72
2023-03-06T19:26:41.917Z,89.33
2023-03-06T19:29:54.553Z,88.72
2023-03-06T19:33:06.894Z,88.69
2023-03-06T19:36:19.852Z,89.03
2023-03-06T19:39:32.247Z,88.59
2023-03-06T19:42:44.915Z,88.51
2023-03-06T19:45:57.430Z,89.34
2023-03-06T19:49:14.060Z,90.00
2023-03-06T19:52:26.429Z,91.53
2023-03-06T19:55:39.944Z,93.62
2023-03-06T19:58:52.773Z,93.08
2023-03-06T20:02:05.418Z,94.11
2023-03-06T20:05:18.087Z,93.49
2023-03-06T20:08:30.450Z,91.73
2023-03-06T20:11:43.136Z,91.88
2023-03-06T20:14:55.498Z,93.07
2023-03-06T20:18:08.440Z,91.66
2023-03-06T20:21:21.616Z,92.46
2023-03-06T20:24:34.241Z,93.35
2023-03-06T20:27:46.606Z,93.49
2023-03-06T20:30:59.330Z,94.62
2023-03-06T20:34:11.786Z,93.40
2023-03-06T20:37:24.440Z,93.76
2023-03-06T20:40:41.031Z,94.34
2023-03-06T20:43:53.780Z,95.05
2023-03-06T20:47:06.197Z,97.54
2023-03-06T20:50:18.862Z,97.16
2023-03-06T20:53:31.285Z,95.76
2023-03-06T20:56:46.093Z,96.96
2023-03-06T20:59:58.398Z,97.10
2023-03-06T21:03:10.995Z,96.04
2023-03-06T21:06:23.511Z,96.68
2023-03-06T21:09:37.732Z,97.61
2023-03-06T21:12:50.043Z,96.84
2023-03-06T21:16:06.466Z,97.13
2023-03-06T21:19:19.329Z,97.07
2023-03-06T21:22:31.920Z,95.74
2023-03-06T21:25:51.472Z,96.24
2023-03-06T21:29:04.320Z,95.70
2023-03-06T21:32:16.734Z,95.51
2023-03-06T21:35:29.451Z,97.15
2023-03-06T21:38:41.846Z,99.55
2023-03-06T21:41:54.451Z,100.00
2023-03-06T21:45:10.275Z,99.06
2023-03-06T21:48:22.909Z,100.00
2023-03-06T21:51:35.270Z,100.00
2023-03-06T21:54:49.225Z,100.00
2023-03-06T21:58:02.981Z,100.00
2023-03-06T22:01:23.415Z,100.00
2023-03-06T22:04:36.260Z,100.00
2023-03-06T22:07:48.659Z,100.00
2023-03-06T22:11:05.801Z,100.00
2023-03-06T22:14:18.111Z,100.00
2023-03-06T22:17:30.794Z,100.00
2023-03-06T22:20:44.245Z,100.00
2023-03-06T22:23:57.569Z,100.00
2023-03-06T22:27:09.961Z,100.00
2023-03-06T22:30:22.620Z,100.00
2023-03-06T22:33:35.083Z,100.00
2023-03-06T22:36:47.730Z,100.00
2023-03-06T22:40:00.044Z,100.00
2023-03-06T22:43:12.601Z,100.00
2023-03-06T22:46:25.214Z,100.00
2023-03-06T22:49:37.959Z,100.00
2023-03-06T22:52:50.291Z,100.00
2023-03-06T22:56:03.965Z,100.00
2023-03-06T22:59:16.285Z,100.00
2023-03-06T23:02:35.368Z,100.00
2023-03-06T23:05:47.776Z,100.00
2023-03-06T23:09:05.865Z,100.00
2023-03-06T23:12:37.167Z,100.00
2023-03-06T23:16:08.550Z,100.00
2023-03-06T23:19:39.318Z,100.00
2023-03-06T23:23:10.979Z,100.00
2023-03-06T23:26:26.822Z,100.00
2023-03-06T23:29:39.476Z,100.00
2023-03-06T23:32:51.821Z,100.00
2023-03-06T23:36:05.955Z,100.00
2023-03-06T23:39:18.600Z,100.00
2023-03-06T23:42:31.695Z,100.00
2023-03-06T23:45:55.027Z,100.00
2023-03-06T23:49:08.198Z,100.00
2023-03-06T23:52:20.495Z,100.00
2023-03-06T23:55:33.139Z,100.00
2023-03-06T23:58:45.750Z,100.00
